Time;durP1;ratioP1;P1;durP2;ratioP2;P2;SDS_P1;SDS_P2;PMS_P1;PMS_P2;Temp;Humidity;BMP_temperature;BMP_pressure;BME280_temperature;BME280_humidity;BME280_pressure;Samples;Min_cycle;Max_cycle;Signal;HPM_P1;HPM_P2
2022/09/09 00:00:17;;;;;;;1.73;0.30;;;15.80;99.90;;;;;;5025463;28;20804;-72
2022/09/09 00:02:49;;;;;;;;;;;15.70;99.90;;;;;;5026192;28;20048;-73
2022/09/09 00:05:44;;;;;;;1.55;0.30;;;15.70;99.90;;;;;;5025960;28;19917;-73
2022/09/09 00:08:19;;;;;;;4.50;0.43;;;15.70;99.90;;;;;;5002825;28;20049;-73
2022/09/09 00:10:49;;;;;;;1.65;0.35;;;15.70;99.90;;;;;;5025107;28;20053;-71
2022/09/09 00:13:39;;;;;;;0.95;0.30;;;15.70;99.90;;;;;;5025716;28;20597;-73
2022/09/09 00:16:13;;;;;;;1.90;0.40;;;15.60;99.90;;;;;;5023926;28;20504;-71
2022/09/09 00:18:59;;;;;;;2.25;0.40;;;15.60;99.90;;;;;;5025502;28;20116;-73
2022/09/09 00:21:35;;;;;;;1.48;0.50;;;15.60;99.90;;;;;;5022432;28;20052;-73
2022/09/09 00:24:26;;;;;;;0.55;0.30;;;15.60;99.90;;;;;;5024838;28;20048;-73
2022/09/09 00:27:00;;;;;;;1.50;0.38;;;15.50;99.90;;;;;;5022259;28;20124;-73
2022/09/09 00:29:35;;;;;;;3.53;0.75;;;15.50;99.90;;;;;;5021965;28;20050;-73
2022/09/09 00:32:27;;;;;;;1.73;0.73;;;15.50;99.90;;;;;;5025315;28;20091;-73
2022/09/09 00:34:58;;;;;;;3.05;0.52;;;15.50;99.90;;;;;;5021044;28;20248;-73
2022/09/09 00:37:25;;;;;;;2.88;0.45;;;15.40;99.90;;;;;;5022013;28;20521;-73
2022/09/09 00:39:56;;;;;;;1.17;0.50;;;15.40;99.90;;;;;;5024794;28;20033;-73
2022/09/09 00:42:26;;;;;;;;;;;15.40;99.90;;;;;;5023648;28;20833;-72
2022/09/09 00:44:55;;;;;;;3.13;0.77;;;15.40;99.90;;;;;;5024879;28;19913;-72
2022/09/09 00:47:26;;;;;;;1.85;0.57;;;15.30;99.90;;;;;;5026747;28;20052;-72
2022/09/09 00:49:55;;;;;;;4.97;0.75;;;15.30;99.90;;;;;;5022224;28;20041;-73
2022/09/09 00:52:46;;;;;;;2.65;0.93;;;15.40;99.90;;;;;;5021092;28;20037;-71
2022/09/09 00:55:18;;;;;;;2.72;0.50;;;15.30;99.90;;;;;;5023310;28;20140;-72
2022/09/09 00:57:46;;;;;;;2.47;0.60;;;15.30;99.90;;;;;;5013892;28;20045;-73
2022/09/09 01:00:20;;;;;;;2.35;0.70;;;15.30;99.90;;;;;;5025080;28;20497;-73
2022/09/09 01:03:03;;;;;;;2.35;0.57;;;15.20;99.90;;;;;;5024097;28;20041;-72
2022/09/09 01:05:42;;;;;;;2.42;0.75;;;15.20;99.90;;;;;;5022114;28;20042;-73
2022/09/09 01:08:40;;;;;;;6.20;1.15;;;15.20;99.90;;;;;;5025416;28;20041;-72
2022/09/09 01:11:15;;;;;;;5.72;0.73;;;15.20;99.90;;;;;;5002788;28;20041;-71
2022/09/09 01:13:42;;;;;;;3.22;0.55;;;15.20;99.90;;;;;;5024577;28;20029;-73
2022/09/09 01:16:11;;;;;;;2.30;0.70;;;15.10;99.90;;;;;;5032386;28;20060;-72
2022/09/09 01:18:44;;;;;;;2.63;0.90;;;15.10;99.90;;;;;;5031497;28;20098;-73
2022/09/09 01:21:15;;;;;;;1.75;0.57;;;15.10;99.90;;;;;;5034308;28;20038;-72
2022/09/09 01:23:59;;;;;;;2.13;0.73;;;15.10;99.90;;;;;;5028503;28;20111;-73
2022/09/09 01:26:45;;;;;;;4.25;0.75;;;15.00;99.90;;;;;;5023366;28;20041;-73
2022/09/09 01:29:16;;;;;;;1.48;1.02;;;15.00;99.90;;;;;;5025998;28;20065;-73
2022/09/09 01:31:53;;;;;;;3.35;0.88;;;15.00;99.90;;;;;;5024191;28;20111;-73
2022/09/09 01:34:19;;;;;;;2.53;0.82;;;15.00;99.90;;;;;;5021895;28;20441;-73
2022/09/09 01:36:51;;;;;;;2.80;1.00;;;15.00;99.90;;;;;;5029754;28;20041;-71
2022/09/09 01:39:16;;;;;;;3.95;1.50;;;15.00;99.90;;;;;;5027545;28;20033;-73
2022/09/09 01:41:42;;;;;;;4.72;1.05;;;15.00;99.90;;;;;;5029223;28;20048;-72
2022/09/09 01:44:09;;;;;;;2.67;0.93;;;15.00;99.90;;;;;;5029426;28;20121;-72
2022/09/09 01:46:35;;;;;;;3.60;1.02;;;15.00;99.90;;;;;;5029334;28;20057;-72
2022/09/09 01:49:03;;;;;;;1.63;0.82;;;14.90;99.90;;;;;;5030036;28;20449;-72
2022/09/09 01:51:30;;;;;;;3.55;1.23;;;14.90;99.90;;;;;;5028490;28;20057;-72
2022/09/09 01:53:55;;;;;;;1.92;1.27;;;14.90;99.90;;;;;;5027926;28;20124;-73
2022/09/09 01:56:32;;;;;;;2.60;1.20;;;14.90;99.90;;;;;;5028831;28;20132;-73
2022/09/09 01:59:36;;;;;;;6.38;1.48;;;14.90;99.90;;;;;;5028888;28;20043;-72
2022/09/09 02:02:11;;;;;;;4.05;1.00;;;14.90;99.90;;;;;;5026367;28;20084;-73
2022/09/09 02:04:39;;;;;;;3.42;1.15;;;14.80;99.90;;;;;;5027714;28;20037;-72
2022/09/09 02:07:19;;;;;;;3.65;1.40;;;14.80;99.90;;;;;;5031933;28;20036;-73
2022/09/09 02:09:49;;;;;;;9.85;1.50;;;14.80;99.90;;;;;;5028315;28;20063;-73
2022/09/09 02:12:18;;;;;;;;;;;14.80;99.90;;;;;;5028190;28;20036;-71
2022/09/09 02:15:00;;;;;;;6.65;1.70;;;14.80;99.90;;;;;;5024239;28;19917;-72
2022/09/09 02:17:30;;;;;;;2.80;1.10;;;14.90;99.90;;;;;;5025508;28;20033;-74
2022/09/09 02:20:03;;;;;;;6.32;1.63;;;14.90;99.90;;;;;;5027919;28;20094;-73
2022/09/09 02:22:31;;;;;;;4.82;1.60;;;14.90;99.90;;;;;;5027098;28;20038;-73
2022/09/09 02:24:59;;;;;;;4.20;1.50;;;14.90;99.90;;;;;;5027534;28;20056;-73
2022/09/09 02:27:25;;;;;;;4.50;1.70;;;14.90;99.90;;;;;;5027408;28;20049;-73
2022/09/09 02:29:52;;;;;;;5.70;1.77;;;14.90;99.90;;;;;;5027862;28;20045;-73
2022/09/09 02:32:22;;;;;;;6.20;2.58;;;14.90;99.90;;;;;;5027367;28;20030;-73
2022/09/09 02:35:02;;;;;;;5.07;1.90;;;14.90;99.90;;;;;;5027196;28;20128;-73
2022/09/09 02:37:35;;;;;;;4.32;1.90;;;14.80;99.90;;;;;;5027410;28;20044;-72
2022/09/09 02:40:02;;;;;;;5.85;1.73;;;14.80;99.90;;;;;;5027876;28;20033;-72
2022/09/09 02:42:28;;;;;;;5.53;1.60;;;14.80;99.90;;;;;;5027216;28;20060;-73
2022/09/09 02:44:54;;;;;;;4.13;1.75;;;14.80;99.90;;;;;;5027134;28;20754;-73
2022/09/09 02:47:29;;;;;;;6.03;1.90;;;14.80;99.90;;;;;;5027479;28;20485;-73
2022/09/09 02:50:09;;;;;;;4.10;1.50;;;14.80;99.90;;;;;;5027440;28;20737;-73
2022/09/09 02:52:41;;;;;;;3.67;1.40;;;14.90;99.90;;;;;;5023912;28;20116;-73
2022/09/09 02:55:29;;;;;;;4.15;1.40;;;14.90;99.90;;;;;;5018181;28;20063;-73
2022/09/09 02:57:56;;;;;;;4.57;1.60;;;14.90;99.90;;;;;;5026563;28;20053;-73
2022/09/09 03:00:27;;;;;;;9.40;1.90;;;14.90;99.90;;;;;;5035109;28;20048;-72
2022/09/09 03:02:54;;;;;;;2.83;1.48;;;14.90;99.90;;;;;;5035236;28;20037;-73
2022/09/09 03:05:20;;;;;;;10.07;1.80;;;14.90;99.90;;;;;;5033185;28;20030;-73
2022/09/09 03:07:46;;;;;;;4.32;1.60;;;14.90;99.90;;;;;;5026368;28;20486;-72
2022/09/09 03:10:12;;;;;;;4.78;1.67;;;14.90;99.90;;;;;;5027019;28;20033;-72
2022/09/09 03:12:38;;;;;;;7.68;1.98;;;14.90;99.90;;;;;;5025929;28;20506;-72
2022/09/09 03:15:05;;;;;;;7.40;1.60;;;14.90;99.90;;;;;;5026205;28;20041;-73
2022/09/09 03:17:30;;;;;;;2.70;1.30;;;14.90;99.90;;;;;;5025029;28;20056;-72
2022/09/09 03:19:57;;;;;;;8.70;1.42;;;14.80;99.90;;;;;;5027099;28;20037;-73
2022/09/09 03:22:23;;;;;;;3.47;1.30;;;14.80;99.90;;;;;;5026085;28;20033;-73
2022/09/09 03:24:48;;;;;;;4.00;1.50;;;14.80;99.90;;;;;;5025232;28;20124;-73
2022/09/09 03:27:14;;;;;;;5.20;1.48;;;14.80;99.90;;;;;;5025362;28;20037;-74
2022/09/09 03:29:40;;;;;;;6.55;1.73;;;14.80;99.90;;;;;;5027598;28;20521;-73
2022/09/09 03:32:06;;;;;;;4.05;1.70;;;14.80;99.90;;;;;;5027796;28;20064;-73
2022/09/09 03:34:31;;;;;;;9.80;1.60;;;14.80;99.90;;;;;;5025229;28;20036;-71
2022/09/09 03:36:57;;;;;;;4.88;1.67;;;14.80;99.90;;;;;;5026381;28;20033;-72
2022/09/09 03:39:23;;;;;;;5.85;1.70;;;14.70;99.90;;;;;;5025933;28;20048;-72
2022/09/09 03:41:48;;;;;;;4.22;1.60;;;14.70;99.90;;;;;;5026407;28;20042;-72
2022/09/09 03:44:14;;;;;;;3.75;1.42;;;14.70;99.90;;;;;;5025980;28;20034;-73
2022/09/09 03:46:40;;;;;;;1.95;1.13;;;14.70;99.90;;;;;;5024639;28;20449;-73
2022/09/09 03:49:05;;;;;;;3.10;1.35;;;14.70;99.90;;;;;;5026424;28;20063;-72
2022/09/09 03:51:31;;;;;;;3.10;1.40;;;14.60;99.90;;;;;;5026152;28;20038;-72
2022/09/09 03:53:58;;;;;;;3.28;1.75;;;14.60;99.90;;;;;;5025138;28;20445;-73
2022/09/09 03:56:24;;;;;;;5.70;1.38;;;14.60;99.90;;;;;;5026141;28;20102;-71
2022/09/09 03:58:49;;;;;;;10.73;1.65;;;14.60;99.90;;;;;;5025607;28;20562;-71
2022/09/09 04:01:17;;;;;;;4.20;1.45;;;14.60;99.90;;;;;;5026353;28;20041;-74
2022/09/09 04:03:44;;;;;;;2.58;1.10;;;14.60;99.90;;;;;;5024896;28;20029;-72
2022/09/09 04:06:14;;;;;;;3.13;1.10;;;14.60;99.90;;;;;;5026807;28;20037;-73
2022/09/09 04:08:41;;;;;;;3.40;1.67;;;14.60;99.90;;;;;;5022161;28;20540;-73
2022/09/09 04:11:07;;;;;;;3.38;1.63;;;14.70;99.90;;;;;;5022388;28;20021;-72
2022/09/09 04:13:38;;;;;;;5.07;2.10;;;14.60;99.90;;;;;;5025783;28;20025;-72
2022/09/09 04:16:05;;;;;;;3.20;0.98;;;14.70;99.90;;;;;;5026135;28;20038;-72
2022/09/09 04:18:32;;;;;;;7.55;1.55;;;14.60;99.90;;;;;;5025689;28;20098;-73
2022/09/09 04:20:58;;;;;;;3.33;1.50;;;14.60;99.90;;;;;;5023722;28;20052;-72
2022/09/09 04:23:25;;;;;;;2.88;0.85;;;14.70;99.90;;;;;;5025600;28;20038;-72
2022/09/09 04:25:53;;;;;;;5.28;1.50;;;14.70;99.90;;;;;;5024080;28;20026;-71
2022/09/09 04:28:21;;;;;;;4.38;1.20;;;14.70;99.90;;;;;;5025625;28;20017;-72
2022/09/09 04:30:47;;;;;;;2.80;1.05;;;14.70;99.90;;;;;;5025232;28;20122;-72
2022/09/09 04:33:14;;;;;;;4.00;1.17;;;14.70;99.90;;;;;;5024363;28;20064;-72
2022/09/09 04:35:45;;;;;;;3.58;1.33;;;14.70;99.90;;;;;;5023776;28;20029;-72
2022/09/09 04:38:10;;;;;;;3.97;1.20;;;14.70;99.90;;;;;;5023507;28;20029;-73
2022/09/09 04:40:36;;;;;;;2.45;0.90;;;14.70;99.90;;;;;;5032072;28;20086;-72
2022/09/09 04:43:06;;;;;;;2.92;1.02;;;14.70;99.90;;;;;;5033745;28;20034;-72
2022/09/09 04:45:33;;;;;;;4.50;1.25;;;14.60;99.90;;;;;;5030997;28;20118;-73
2022/09/09 04:47:59;;;;;;;5.90;1.13;;;14.70;99.90;;;;;;5025867;28;20043;-73
2022/09/09 04:50:25;;;;;;;2.97;1.02;;;14.60;99.90;;;;;;5025904;28;20045;-72
2022/09/09 04:52:51;;;;;;;2.75;0.88;;;14.60;99.90;;;;;;5025995;28;20036;-72
2022/09/09 04:55:16;;;;;;;12.43;1.38;;;14.60;99.90;;;;;;5025072;28;20034;-71
2022/09/09 04:57:42;;;;;;;2.85;1.00;;;14.60;99.90;;;;;;5025270;28;20118;-72
2022/09/09 05:00:09;;;;;;;5.00;1.15;;;14.60;99.90;;;;;;5025506;28;20037;-73
2022/09/09 05:02:38;;;;;;;2.17;1.10;;;14.60;99.90;;;;;;5021315;28;20070;-72
2022/09/09 05:05:04;;;;;;;4.22;1.65;;;14.60;99.90;;;;;;5020581;28;20107;-72
2022/09/09 05:07:31;;;;;;;6.38;1.05;;;14.60;99.90;;;;;;5025405;28;20168;-73
2022/09/09 05:09:56;;;;;;;4.18;1.40;;;14.60;99.90;;;;;;5024087;28;20044;-74
2022/09/09 05:12:24;;;;;;;4.82;1.52;;;14.60;99.90;;;;;;5024422;28;20037;-73
2022/09/09 05:14:50;;;;;;;3.55;1.40;;;14.60;99.90;;;;;;5024046;28;20041;-71
2022/09/09 05:17:16;;;;;;;2.80;1.30;;;14.70;99.90;;;;;;5025349;28;20044;-73
2022/09/09 05:19:42;;;;;;;3.22;1.45;;;14.70;99.90;;;;;;5024343;28;20042;-72
2022/09/09 05:22:08;;;;;;;5.45;1.17;;;14.70;99.90;;;;;;5025112;28;20042;-73
2022/09/09 05:24:34;;;;;;;6.00;1.27;;;14.60;99.90;;;;;;5024528;28;20109;-73
2022/09/09 05:27:01;;;;;;;5.30;1.42;;;14.70;99.90;;;;;;5024861;28;20045;-73
2022/09/09 05:29:27;;;;;;;5.35;1.23;;;14.60;99.90;;;;;;5021445;28;20851;-73
2022/09/09 05:31:53;;;;;;;5.90;1.23;;;14.60;99.90;;;;;;5020986;28;20040;-73
2022/09/09 05:34:19;;;;;;;6.97;1.23;;;14.60;99.90;;;;;;5020054;28;20108;-73
2022/09/09 05:36:45;;;;;;;6.63;1.30;;;14.60;99.90;;;;;;5024015;28;20450;-73
2022/09/09 05:39:11;;;;;;;4.70;1.42;;;14.60;99.90;;;;;;5024946;28;20057;-73
2022/09/09 05:41:37;;;;;;;7.15;1.95;;;14.70;99.90;;;;;;5024391;28;20037;-71
2022/09/09 05:44:03;;;;;;;2.75;0.98;;;14.70;99.90;;;;;;5024186;28;20370;-73
2022/09/09 05:46:29;;;;;;;10.15;1.73;;;14.70;99.90;;;;;;5023348;28;20107;-73
2022/09/09 05:48:55;;;;;;;7.13;1.35;;;14.70;99.90;;;;;;5020101;28;20103;-73
2022/09/09 05:51:23;;;;;;;4.90;1.10;;;14.70;99.90;;;;;;5024380;28;20025;-72
2022/09/09 05:53:55;;;;;;;6.38;1.27;;;14.80;99.90;;;;;;5023859;28;20033;-73
2022/09/09 05:56:24;;;;;;;6.18;0.90;;;14.80;99.90;;;;;;5024414;28;20073;-72
2022/09/09 05:58:51;;;;;;;3.38;0.70;;;14.80;99.90;;;;;;5024990;28;20032;-73
2022/09/09 06:01:19;;;;;;;6.53;1.40;;;14.80;99.90;;;;;;5024488;28;20471;-72
2022/09/09 06:03:46;;;;;;;9.07;2.88;;;14.90;99.90;;;;;;5023465;28;20112;-73
2022/09/09 06:06:15;;;;;;;3.08;0.77;;;14.90;99.90;;;;;;5025481;28;20036;-73
2022/09/09 06:08:44;;;;;;;3.65;1.00;;;15.00;99.90;;;;;;5026982;28;20029;-72
2022/09/09 06:11:21;;;;;;;9.95;1.35;;;15.00;99.90;;;;;;5028907;28;20127;-73
2022/09/09 06:13:47;;;;;;;5.85;1.17;;;15.10;99.90;;;;;;5027343;28;20177;-73
2022/09/09 06:16:15;;;;;;;5.30;1.10;;;15.10;99.90;;;;;;5025806;28;20457;-73
2022/09/09 06:18:41;;;;;;;4.78;1.10;;;15.30;99.90;;;;;;5033760;28;20478;-74
2022/09/09 06:21:15;;;;;;;6.55;0.82;;;15.30;99.90;;;;;;5037810;28;20075;-71
2022/09/09 06:23:41;;;;;;;3.75;0.88;;;15.40;99.90;;;;;;5037041;28;20072;-74
2022/09/09 06:26:09;;;;;;;4.60;1.20;;;15.50;99.90;;;;;;5029129;28;20744;-73
2022/09/09 06:28:36;;;;;;;2.75;0.90;;;15.60;99.90;;;;;;5028638;28;20029;-73
2022/09/09 06:31:06;;;;;;;4.82;1.15;;;15.60;99.90;;;;;;5028899;28;20128;-73
2022/09/09 06:33:34;;;;;;;3.47;1.00;;;15.70;99.90;;;;;;5024895;28;20025;-73
2022/09/09 06:36:01;;;;;;;5.72;1.10;;;15.70;99.90;;;;;;5026101;28;20057;-73
2022/09/09 06:38:27;;;;;;;7.13;1.33;;;15.70;99.90;;;;;;5028801;28;20144;-73
2022/09/09 06:40:58;;;;;;;6.45;0.90;;;15.70;99.90;;;;;;5028042;28;20037;-72
2022/09/09 06:43:27;;;;;;;11.95;1.52;;;15.70;99.90;;;;;;5027196;28;20092;-73
2022/09/09 06:46:01;;;;;;;3.40;0.80;;;15.80;99.90;;;;;;5026866;28;20038;-73
2022/09/09 06:48:27;;;;;;;3.78;0.93;;;16.00;99.90;;;;;;5027437;28;20041;-72
2022/09/09 06:51:12;;;;;;;3.00;0.80;;;16.10;99.90;;;;;;5027269;28;20041;-72
2022/09/09 06:53:39;;;;;;;9.98;1.92;;;16.30;99.90;;;;;;5026351;28;20460;-71
2022/09/09 06:56:11;;;;;;;3.53;1.00;;;16.50;99.90;;;;;;5027949;28;20041;-73
2022/09/09 06:58:43;;;;;;;3.72;0.68;;;16.70;99.90;;;;;;5027731;28;20044;-72
2022/09/09 07:01:12;;;;;;;6.28;1.15;;;16.70;99.90;;;;;;5028237;28;20048;-70
2022/09/09 07:03:38;;;;;;;3.47;1.00;;;16.80;99.90;;;;;;5025989;28;20385;-71
2022/09/09 07:06:05;;;;;;;3.72;1.00;;;16.80;99.90;;;;;;5027839;28;20025;-73
2022/09/09 07:08:31;;;;;;;5.13;0.80;;;16.70;99.90;;;;;;5027905;28;20033;-74
2022/09/09 07:11:05;;;;;;;5.28;1.00;;;16.80;99.90;;;;;;5017054;28;20045;-72
2022/09/09 07:13:31;;;;;;;3.85;0.70;;;16.80;99.90;;;;;;5020915;28;20414;-73
2022/09/09 07:16:09;;;;;;;6.32;0.90;;;16.80;99.90;;;;;;5022048;28;20484;-72
2022/09/09 07:18:35;;;;;;;3.03;1.23;;;16.90;99.90;;;;;;5023394;28;20041;-73
2022/09/09 07:21:02;;;;;;;2.78;1.33;;;16.90;99.90;;;;;;5025431;28;20616;-73
2022/09/09 07:23:29;;;;;;;5.32;1.15;;;17.00;99.90;;;;;;5025594;28;20041;-73
2022/09/09 07:25:55;;;;;;;9.40;0.80;;;17.00;99.90;;;;;;5022608;28;20029;-73
2022/09/09 07:28:22;;;;;;;6.05;0.68;;;17.00;99.90;;;;;;5024407;28;20057;-73
2022/09/09 07:30:59;;;;;;;3.53;1.10;;;16.90;99.90;;;;;;5025415;28;20497;-73
2022/09/09 07:33:25;;;;;;;4.60;0.75;;;16.90;99.90;;;;;;5019140;28;20061;-73
2022/09/09 07:35:52;;;;;;;4.80;0.80;;;17.00;99.90;;;;;;5024855;28;20039;-74
2022/09/09 07:38:19;;;;;;;5.43;0.60;;;17.00;99.90;;;;;;5025703;28;20045;-73
2022/09/09 07:40:44;;;;;;;3.67;0.93;;;17.10;99.90;;;;;;5024780;28;20056;-73
2022/09/09 07:43:11;;;;;;;2.50;0.63;;;17.00;99.90;;;;;;5015883;28;20553;-73
2022/09/09 07:45:37;;;;;;;5.10;1.25;;;17.10;99.90;;;;;;5034810;28;21473;-72
2022/09/09 07:48:03;;;;;;;3.55;0.88;;;17.10;99.90;;;;;;5034636;28;20044;-71
2022/09/09 07:50:29;;;;;;;6.50;1.15;;;17.10;99.90;;;;;;5035647;28;20046;-73
2022/09/09 07:52:54;;;;;;;8.05;1.10;;;17.00;99.90;;;;;;5036155;28;20036;-73
2022/09/09 07:55:25;;;;;;;3.42;0.90;;;17.00;99.90;;;;;;5038127;28;20068;-73
2022/09/09 07:57:50;;;;;;;2.85;0.70;;;17.00;99.90;;;;;;5033045;28;20044;-74
2022/09/09 08:00:16;;;;;;;5.47;0.88;;;17.00;99.90;;;;;;5031061;28;20121;-74
2022/09/09 08:02:42;;;;;;;7.95;1.27;;;16.90;99.90;;;;;;5029485;28;20505;-73
2022/09/09 08:05:08;;;;;;;4.78;1.00;;;17.00;99.90;;;;;;5024855;28;20049;-73
2022/09/09 08:07:34;;;;;;;9.40;1.88;;;17.00;99.90;;;;;;5025524;28;20037;-74
2022/09/09 08:09:59;;;;;;;13.23;1.02;;;17.00;99.90;;;;;;5024440;28;20048;-73
2022/09/09 08:12:25;;;;;;;4.28;1.00;;;17.20;99.90;;;;;;5023798;28;20056;-73
2022/09/09 08:14:51;;;;;;;4.45;0.90;;;17.30;99.90;;;;;;5024428;28;20041;-73
2022/09/09 08:17:17;;;;;;;3.85;0.77;;;17.40;99.90;;;;;;5024864;28;20034;-73
2022/09/09 08:19:44;;;;;;;6.38;1.27;;;17.40;99.90;;;;;;5024550;28;20063;-73
2022/09/09 08:22:09;;;;;;;3.85;0.68;;;17.50;99.90;;;;;;5024931;28;20033;-72
2022/09/09 08:24:35;;;;;;;3.10;1.15;;;17.50;99.90;;;;;;5024479;28;20044;-73
2022/09/09 08:27:01;;;;;;;5.85;0.77;;;17.50;99.90;;;;;;5024056;28;20136;-73
2022/09/09 08:29:28;;;;;;;4.63;0.77;;;17.50;99.90;;;;;;5024499;28;20050;-73
2022/09/09 08:31:57;;;;;;;8.50;1.20;;;17.40;99.90;;;;;;5023937;28;20021;-72
2022/09/09 08:34:24;;;;;;;7.50;0.57;;;17.50;99.90;;;;;;5019790;28;20105;-73
2022/09/09 08:36:50;;;;;;;5.30;0.82;;;17.50;99.90;;;;;;5024208;28;20040;-73
2022/09/09 08:39:18;;;;;;;4.70;0.75;;;17.50;99.90;;;;;;5025151;28;20037;-74
2022/09/09 08:42:02;;;;;;;3.10;1.48;;;17.40;99.90;;;;;;5027784;28;20045;-72
2022/09/09 08:44:33;;;;;;;12.80;1.15;;;17.40;99.90;;;;;;5022416;28;20050;-73
2022/09/09 08:46:59;;;;;;;5.32;0.93;;;17.40;99.90;;;;;;5021649;28;20037;-74
2022/09/09 08:49:43;;;;;;;5.93;1.00;;;17.30;99.90;;;;;;5025809;28;20528;-73
2022/09/09 08:52:18;;;;;;;3.80;0.60;;;17.30;99.90;;;;;;5024571;28;20495;-72
2022/09/09 08:54:44;;;;;;;3.58;0.50;;;17.20;99.90;;;;;;5024540;28;20465;-73
2022/09/09 08:57:18;;;;;;;3.80;0.73;;;17.30;99.90;;;;;;5026194;28;20049;-73
2022/09/09 08:59:43;;;;;;;6.82;0.95;;;17.30;99.90;;;;;;5024611;28;20035;-73
2022/09/09 09:02:36;;;;;;;3.45;0.68;;;17.20;99.90;;;;;;5025678;28;20452;-72
2022/09/09 09:05:14;;;;;;;5.63;0.60;;;17.20;99.90;;;;;;5021930;28;20168;-73
2022/09/09 09:08:06;;;;;;;6.43;0.50;;;17.20;99.90;;;;;;5023002;28;20037;-73
2022/09/09 09:10:54;;;;;;;6.45;1.48;;;17.20;99.90;;;;;;5022469;28;20411;-73
2022/09/09 09:13:34;;;;;;;5.47;0.93;;;17.20;99.90;;;;;;5020329;28;20124;-73
2022/09/09 09:16:10;;;;;;;9.90;1.10;;;17.10;99.90;;;;;;5022217;28;20030;-73
2022/09/09 09:18:37;;;;;;;8.32;1.13;;;17.10;99.90;;;;;;5025032;28;20382;-73
2022/09/09 09:21:14;;;;;;;6.95;1.25;;;17.20;99.90;;;;;;5024644;28;20117;-73
2022/09/09 09:23:58;;;;;;;6.90;1.00;;;17.10;99.90;;;;;;5023049;28;20037;-73
2022/09/09 09:26:30;;;;;;;6.50;0.80;;;17.10;99.90;;;;;;5021726;28;20041;-73
2022/09/09 09:28:57;;;;;;;2.92;0.77;;;17.10;99.90;;;;;;5025087;28;20068;-72
2022/09/09 09:31:26;;;;;;;4.63;0.60;;;17.10;99.90;;;;;;5024677;28;20029;-73
2022/09/09 09:33:54;;;;;;;6.88;1.25;;;17.10;99.90;;;;;;5020553;28;20079;-73
2022/09/09 09:36:53;;;;;;;4.82;1.15;;;17.20;99.90;;;;;;5021853;28;20112;-74
2022/09/09 09:39:28;;;;;;;7.30;0.83;;;17.10;99.90;;;;;;5009631;28;20413;-72
2022/09/09 09:41:54;;;;;;;6.60;1.05;;;17.10;99.90;;;;;;5023655;28;20132;-74
2022/09/09 09:44:27;;;;;;;3.83;0.82;;;17.10;99.90;;;;;;5029604;28;20180;-73
2022/09/09 09:47:05;;;;;;;7.68;0.82;;;17.20;99.90;;;;;;5022902;28;20044;-73
2022/09/09 09:49:32;;;;;;;4.05;1.33;;;17.20;99.90;;;;;;5026966;28;20076;-74
2022/09/09 09:52:01;;;;;;;9.75;0.75;;;17.20;99.90;;;;;;5023495;28;21079;-73
2022/09/09 09:54:33;;;;;;;7.43;0.90;;;17.40;99.90;;;;;;5024791;28;20097;-73
2022/09/09 09:57:14;;;;;;;3.17;0.68;;;17.40;99.90;;;;;;5032129;28;20034;-73
2022/09/09 09:59:39;;;;;;;2.92;0.75;;;17.60;99.90;;;;;;5034259;28;20139;-73
2022/09/09 10:02:24;;;;;;;4.65;1.00;;;17.60;99.90;;;;;;5028202;28;20124;-74
2022/09/09 10:05:27;;;;;;;8.02;0.80;;;17.80;99.90;;;;;;5022823;28;20085;-73
2022/09/09 10:08:13;;;;;;;6.03;0.93;;;17.80;99.90;;;;;;5019778;28;20037;-72
2022/09/09 10:10:56;;;;;;;7.65;0.70;;;17.70;99.90;;;;;;5018030;28;20050;-72
2022/09/09 10:13:32;;;;;;;4.25;0.73;;;17.50;99.90;;;;;;5022025;28;20030;-73
2022/09/09 10:16:16;;;;;;;7.03;1.00;;;17.10;99.90;;;;;;5026478;28;20048;-73
2022/09/09 10:18:47;;;;;;;6.65;1.25;;;16.90;99.90;;;;;;5024135;28;20087;-72
2022/09/09 10:21:39;;;;;;;8.30;0.90;;;16.80;99.90;;;;;;5025440;28;20037;-72
2022/09/09 10:24:16;;;;;;;9.45;1.30;;;16.80;99.90;;;;;;5022658;28;20203;-73
2022/09/09 10:27:16;;;;;;;10.90;1.23;;;17.00;99.90;;;;;;5026721;28;20772;-73
2022/09/09 10:30:08;;;;;;;9.85;1.15;;;17.00;99.90;;;;;;5025321;28;20744;-71
2022/09/09 10:33:09;;;;;;;5.30;1.33;;;17.10;99.90;;;;;;5024643;28;20157;-72
2022/09/09 10:35:47;;;;;;;;;;;17.20;99.90;;;;;;5025934;28;20405;-74
2022/09/09 10:38:29;;;;;;;7.40;1.45;;;17.40;99.90;;;;;;5027586;28;19913;-72
2022/09/09 10:40:57;;;;;;;5.97;1.88;;;17.40;99.90;;;;;;5023626;28;20029;-73
2022/09/09 10:43:44;;;;;;;5.25;1.17;;;17.40;99.90;;;;;;5026223;28;20168;-71
2022/09/09 10:46:19;;;;;;;6.20;1.45;;;17.40;99.90;;;;;;5026669;28;20037;-73
2022/09/09 10:49:23;;;;;;;6.40;0.80;;;17.40;99.90;;;;;;5021977;28;20061;-73
2022/09/09 10:52:12;;;;;;;6.88;0.60;;;17.50;99.90;;;;;;5022321;28;20107;-73
2022/09/09 10:55:10;;;;;;;5.22;1.17;;;17.60;99.90;;;;;;5017460;28;20060;-72
2022/09/09 10:57:45;;;;;;;5.65;0.65;;;17.70;99.90;;;;;;5013847;28;20037;-73
2022/09/09 11:00:27;;;;;;;8.82;0.85;;;17.90;99.90;;;;;;5021894;28;20052;-73
2022/09/09 11:03:00;;;;;;;5.47;1.00;;;17.90;99.90;;;;;;5014235;28;20053;-73
2022/09/09 11:05:39;;;;;;;4.82;0.85;;;17.90;99.90;;;;;;5019670;28;20049;-73
2022/09/09 11:08:17;;;;;;;3.40;0.60;;;17.90;99.90;;;;;;5019351;28;20117;-73
2022/09/09 11:11:03;;;;;;;8.25;1.10;;;17.70;99.90;;;;;;5022812;28;20045;-72
2022/09/09 11:13:51;;;;;;;3.03;0.63;;;17.60;99.90;;;;;;5030169;28;20034;-72
2022/09/09 11:16:44;;;;;;;6.45;0.90;;;17.50;99.90;;;;;;5027024;28;20037;-73
2022/09/09 11:19:39;;;;;;;2.33;0.40;;;17.50;99.90;;;;;;5025422;28;20036;-72
2022/09/09 11:22:07;;;;;;;4.28;0.70;;;17.40;99.90;;;;;;5023289;28;20084;-73
2022/09/09 11:25:09;;;;;;;3.65;0.80;;;17.40;99.90;;;;;;5025243;28;20047;-73
2022/09/09 11:28:15;;;;;;;4.22;0.88;;;17.40;99.90;;;;;;4999720;28;20029;-73
2022/09/09 11:30:55;;;;;;;5.32;1.00;;;17.40;99.90;;;;;;5021289;28;20123;-73
2022/09/09 11:33:45;;;;;;;7.32;1.58;;;17.30;99.90;;;;;;5023445;28;20034;-73
2022/09/09 11:36:48;;;;;;;4.70;1.25;;;17.10;99.90;;;;;;5032286;28;20038;-73
2022/09/09 11:39:35;;;;;;;9.82;1.98;;;17.00;99.90;;;;;;5033233;28;20036;-73
2022/09/09 11:42:19;;;;;;;4.85;1.00;;;16.90;99.90;;;;;;5032691;28;20148;-73
2022/09/09 11:44:46;;;;;;;2.97;0.98;;;16.80;99.90;;;;;;5021079;28;20087;-72
2022/09/09 11:47:29;;;;;;;8.45;1.63;;;16.80;99.90;;;;;;5019998;28;20030;-73
2022/09/09 11:50:07;;;;;;;7.55;1.33;;;16.70;99.90;;;;;;5016702;28;20036;-73
2022/09/09 11:52:40;;;;;;;5.57;0.85;;;16.70;99.90;;;;;;5018973;28;20049;-73
2022/09/09 11:55:27;;;;;;;8.30;1.13;;;16.80;99.90;;;;;;5021083;28;20398;-73
2022/09/09 11:58:19;;;;;;;6.90;1.20;;;16.90;99.90;;;;;;5016929;28;20052;-73
2022/09/09 12:00:49;;;;;;;8.43;1.38;;;17.00;99.90;;;;;;5014824;28;20041;-72
2022/09/09 12:03:46;;;;;;;5.78;0.88;;;17.00;99.90;;;;;;5023003;28;20064;-73
2022/09/09 12:06:33;;;;;;;4.82;2.30;;;17.10;99.90;;;;;;5021178;28;20029;-73
2022/09/09 12:09:10;;;;;;;4.00;1.13;;;17.20;99.90;;;;;;5019704;28;20061;-73
2022/09/09 12:11:37;;;;;;;2.53;0.73;;;17.40;99.90;;;;;;5019199;28;20033;-74
2022/09/09 12:14:02;;;;;;;4.20;1.00;;;17.50;99.90;;;;;;5026264;28;20116;-73
2022/09/09 12:16:34;;;;;;;3.92;1.33;;;17.60;99.90;;;;;;5022722;28;20612;-71
2022/09/09 12:19:14;;;;;;;7.75;1.15;;;17.70;99.90;;;;;;5022362;28;20509;-73
2022/09/09 12:21:51;;;;;;;3.10;0.85;;;17.70;99.90;;;;;;5012187;28;20038;-73
2022/09/09 12:24:27;;;;;;;3.40;1.05;;;17.60;99.90;;;;;;5020503;28;20033;-73
2022/09/09 12:27:31;;;;;;;4.32;0.93;;;17.70;99.90;;;;;;5024850;28;20131;-73
2022/09/09 12:30:11;;;;;;;3.28;1.00;;;17.70;99.90;;;;;;5029899;28;24586;-72
2022/09/09 12:32:37;;;;;;;4.15;1.20;;;17.80;99.90;;;;;;5028681;28;20037;-71
2022/09/09 12:35:20;;;;;;;4.38;0.95;;;17.90;99.90;;;;;;5027313;28;20038;-72
2022/09/09 12:38:12;;;;;;;3.60;0.70;;;18.10;99.90;;;;;;5029100;28;20030;-70
2022/09/09 12:40:39;;;;;;;4.20;0.88;;;18.20;99.90;;;;;;5027267;28;20509;-74
2022/09/09 12:43:22;;;;;;;7.32;1.50;;;18.30;99.90;;;;;;5033434;28;20029;-72
2022/09/09 12:45:56;;;;;;;5.75;1.08;;;18.30;99.90;;;;;;5015209;28;20037;-72
2022/09/09 12:48:34;;;;;;;3.88;0.93;;;18.30;99.90;;;;;;5018982;28;20033;-72
2022/09/09 12:51:01;;;;;;;4.65;1.15;;;18.30;99.90;;;;;;5021446;28;20044;-70
2022/09/09 12:53:37;;;;;;;2.92;0.70;;;18.30;99.90;;;;;;5016312;28;20437;-70
2022/09/09 12:56:07;;;;;;;7.32;0.50;;;18.30;99.90;;;;;;5020454;28;20041;-71
2022/09/09 12:58:34;;;;;;;11.75;1.77;;;18.30;99.90;;;;;;5022493;28;20038;-70
2022/09/09 13:01:04;;;;;;;2.83;0.77;;;18.30;99.90;;;;;;5017788;28;20069;-71
2022/09/09 13:03:30;;;;;;;2.45;0.80;;;18.30;99.90;;;;;;5021912;28;20701;-71
2022/09/09 13:06:09;;;;;;;3.80;1.05;;;18.30;99.90;;;;;;5023383;28;20091;-72
2022/09/09 13:08:35;;;;;;;6.65;0.70;;;18.30;99.90;;;;;;5022621;28;20037;-72
2022/09/09 13:11:04;;;;;;;4.53;0.70;;;18.30;99.90;;;;;;5023129;28;20060;-71
2022/09/09 13:13:39;;;;;;;5.57;1.10;;;18.40;99.90;;;;;;5023003;28;20030;-72
2022/09/09 13:16:17;;;;;;;2.13;0.93;;;18.40;99.90;;;;;;5023409;28;20039;-72